sensor_id;sensor_type;location;lat;lon;timestamp;P1;durP1;ratioP1;P2;durP2;ratioP2
38312;SDS011;24114;52.260;6.714;2022-08-25T00:00:11;1.45;;;0.88;;
38312;SDS011;24114;52.260;6.714;2022-08-25T00:02:39;2.63;;;1.15;;
38312;SDS011;24114;52.260;6.714;2022-08-25T00:05:22;2.05;;;1.00;;
38312;SDS011;24114;52.260;6.714;2022-08-25T00:07:54;2.70;;;1.23;;
38312;SDS011;24114;52.260;6.714;2022-08-25T00:10:22;2.60;;;0.90;;
38312;SDS011;24114;52.260;6.714;2022-08-25T00:12:50;3.03;;;1.13;;
38312;SDS011;24114;52.260;6.714;2022-08-25T00:15:18;2.50;;;0.80;;
38312;SDS011;24114;52.260;6.714;2022-08-25T00:17:48;2.33;;;1.10;;
38312;SDS011;24114;52.260;6.714;2022-08-25T00:20:15;3.13;;;1.20;;
38312;SDS011;24114;52.260;6.714;2022-08-25T00:22:44;1.90;;;1.13;;
38312;SDS011;24114;52.260;6.714;2022-08-25T00:25:12;2.40;;;1.25;;
38312;SDS011;24114;52.260;6.714;2022-08-25T00:27:40;2.22;;;1.40;;
38312;SDS011;24114;52.260;6.714;2022-08-25T00:30:11;2.90;;;1.20;;
38312;SDS011;24114;52.260;6.714;2022-08-25T00:32:41;2.70;;;1.50;;
38312;SDS011;24114;52.260;6.714;2022-08-25T00:35:17;1.98;;;1.10;;
38312;SDS011;24114;52.260;6.714;2022-08-25T00:37:46;3.60;;;1.25;;
38312;SDS011;24114;52.260;6.714;2022-08-25T00:40:14;1.75;;;1.15;;
38312;SDS011;24114;52.260;6.714;2022-08-25T00:42:42;2.63;;;1.30;;
38312;SDS011;24114;52.260;6.714;2022-08-25T00:45:10;2.70;;;1.40;;
38312;SDS011;24114;52.260;6.714;2022-08-25T00:47:37;1.75;;;1.27;;
38312;SDS011;24114;52.260;6.714;2022-08-25T00:50:06;3.30;;;1.23;;
38312;SDS011;24114;52.260;6.714;2022-08-25T00:52:36;2.55;;;1.20;;
38312;SDS011;24114;52.260;6.714;2022-08-25T00:55:08;2.78;;;1.08;;
38312;SDS011;24114;52.260;6.714;2022-08-25T00:57:39;2.03;;;1.30;;
38312;SDS011;24114;52.260;6.714;2022-08-25T01:00:11;3.23;;;1.30;;
38312;SDS011;24114;52.260;6.714;2022-08-25T01:02:41;3.45;;;1.30;;
38312;SDS011;24114;52.260;6.714;2022-08-25T01:05:10;3.20;;;1.25;;
38312;SDS011;24114;52.260;6.714;2022-08-25T01:07:39;2.45;;;1.10;;
38312;SDS011;24114;52.260;6.714;2022-08-25T01:10:11;2.22;;;1.45;;
38312;SDS011;24114;52.260;6.714;2022-08-25T01:12:39;3.28;;;1.17;;
38312;SDS011;24114;52.260;6.714;2022-08-25T01:15:08;3.10;;;1.10;;
38312;SDS011;24114;52.260;6.714;2022-08-25T01:17:38;3.30;;;1.30;;
38312;SDS011;24114;52.260;6.714;2022-08-25T01:20:12;3.70;;;1.15;;
38312;SDS011;24114;52.260;6.714;2022-08-25T01:22:42;2.97;;;1.00;;
38312;SDS011;24114;52.260;6.714;2022-08-25T01:25:21;4.63;;;1.55;;
38312;SDS011;24114;52.260;6.714;2022-08-25T01:28:03;2.60;;;1.40;;
38312;SDS011;24114;52.260;6.714;2022-08-25T01:30:32;1.75;;;1.30;;
38312;SDS011;24114;52.260;6.714;2022-08-25T01:33:01;2.90;;;1.30;;
38312;SDS011;24114;52.260;6.714;2022-08-25T01:35:30;1.58;;;1.10;;
38312;SDS011;24114;52.260;6.714;2022-08-25T01:37:59;1.75;;;1.17;;
38312;SDS011;24114;52.260;6.714;2022-08-25T01:40:27;2.88;;;1.40;;
38312;SDS011;24114;52.260;6.714;2022-08-25T01:42:56;2.80;;;1.40;;
38312;SDS011;24114;52.260;6.714;2022-08-25T01:45:28;2.78;;;1.25;;
38312;SDS011;24114;52.260;6.714;2022-08-25T01:47:56;2.27;;;1.23;;
38312;SDS011;24114;52.260;6.714;2022-08-25T01:50:24;3.13;;;1.27;;
38312;SDS011;24114;52.260;6.714;2022-08-25T01:52:53;1.95;;;1.20;;
38312;SDS011;24114;52.260;6.714;2022-08-25T01:55:24;2.40;;;1.20;;
38312;SDS011;24114;52.260;6.714;2022-08-25T01:57:52;1.90;;;1.33;;
38312;SDS011;24114;52.260;6.714;2022-08-25T02:00:20;1.77;;;1.40;;
38312;SDS011;24114;52.260;6.714;2022-08-25T02:02:48;2.88;;;1.73;;
38312;SDS011;24114;52.260;6.714;2022-08-25T02:05:19;2.93;;;1.23;;
38312;SDS011;24114;52.260;6.714;2022-08-25T02:07:49;1.50;;;1.30;;
38312;SDS011;24114;52.260;6.714;2022-08-25T02:10:17;2.87;;;1.50;;
38312;SDS011;24114;52.260;6.714;2022-08-25T02:12:46;1.77;;;1.30;;
38312;SDS011;24114;52.260;6.714;2022-08-25T02:15:15;1.73;;;1.20;;
38312;SDS011;24114;52.260;6.714;2022-08-25T02:17:43;1.92;;;1.42;;
38312;SDS011;24114;52.260;6.714;2022-08-25T02:20:10;3.35;;;1.38;;
38312;SDS011;24114;52.260;6.714;2022-08-25T02:22:38;2.15;;;1.17;;
38312;SDS011;24114;52.260;6.714;2022-08-25T02:25:14;2.65;;;1.38;;
38312;SDS011;24114;52.260;6.714;2022-08-25T02:27:42;3.03;;;1.38;;
38312;SDS011;24114;52.260;6.714;2022-08-25T02:30:12;2.90;;;1.30;;
38312;SDS011;24114;52.260;6.714;2022-08-25T02:32:41;2.40;;;1.10;;
38312;SDS011;24114;52.260;6.714;2022-08-25T02:35:09;3.08;;;1.00;;
38312;SDS011;24114;52.260;6.714;2022-08-25T02:37:37;2.38;;;1.30;;
38312;SDS011;24114;52.260;6.714;2022-08-25T02:40:05;1.60;;;1.40;;
38312;SDS011;24114;52.260;6.714;2022-08-25T02:42:34;3.97;;;1.33;;
38312;SDS011;24114;52.260;6.714;2022-08-25T02:45:02;2.30;;;1.30;;
38312;SDS011;24114;52.260;6.714;2022-08-25T02:47:31;2.40;;;1.20;;
38312;SDS011;24114;52.260;6.714;2022-08-25T02:49:59;2.92;;;1.52;;
38312;SDS011;24114;52.260;6.714;2022-08-25T02:52:26;3.10;;;1.05;;
38312;SDS011;24114;52.260;6.714;2022-08-25T02:54:54;2.60;;;1.38;;
38312;SDS011;24114;52.260;6.714;2022-08-25T02:57:22;2.55;;;1.20;;
38312;SDS011;24114;52.260;6.714;2022-08-25T02:59:50;2.70;;;1.17;;
38312;SDS011;24114;52.260;6.714;2022-08-25T03:02:18;1.50;;;1.20;;
38312;SDS011;24114;52.260;6.714;2022-08-25T03:04:47;4.78;;;1.30;;
38312;SDS011;24114;52.260;6.714;2022-08-25T03:07:15;2.38;;;1.50;;
38312;SDS011;24114;52.260;6.714;2022-08-25T03:09:46;2.00;;;1.33;;
38312;SDS011;24114;52.260;6.714;2022-08-25T03:12:14;3.20;;;1.30;;
38312;SDS011;24114;52.260;6.714;2022-08-25T03:14:42;2.90;;;1.60;;
38312;SDS011;24114;52.260;6.714;2022-08-25T03:17:11;4.15;;;1.40;;
38312;SDS011;24114;52.260;6.714;2022-08-25T03:19:39;2.50;;;1.70;;
38312;SDS011;24114;52.260;6.714;2022-08-25T03:22:08;3.67;;;1.35;;
38312;SDS011;24114;52.260;6.714;2022-08-25T03:24:36;3.38;;;1.48;;
38312;SDS011;24114;52.260;6.714;2022-08-25T03:27:04;3.67;;;1.33;;
38312;SDS011;24114;52.260;6.714;2022-08-25T03:29:31;6.70;;;1.60;;
38312;SDS011;24114;52.260;6.714;2022-08-25T03:31:59;3.95;;;1.35;;
38312;SDS011;24114;52.260;6.714;2022-08-25T03:34:28;3.97;;;1.40;;
38312;SDS011;24114;52.260;6.714;2022-08-25T03:36:56;3.38;;;1.80;;
38312;SDS011;24114;52.260;6.714;2022-08-25T03:39:25;3.17;;;1.67;;
38312;SDS011;24114;52.260;6.714;2022-08-25T03:41:54;3.45;;;1.40;;
38312;SDS011;24114;52.260;6.714;2022-08-25T03:44:21;2.67;;;1.75;;
38312;SDS011;24114;52.260;6.714;2022-08-25T03:46:50;2.07;;;1.20;;
38312;SDS011;24114;52.260;6.714;2022-08-25T03:49:20;2.42;;;1.52;;
38312;SDS011;24114;52.260;6.714;2022-08-25T03:51:49;3.08;;;1.35;;
38312;SDS011;24114;52.260;6.714;2022-08-25T03:54:19;1.60;;;1.25;;
38312;SDS011;24114;52.260;6.714;2022-08-25T03:56:49;3.70;;;1.70;;
38312;SDS011;24114;52.260;6.714;2022-08-25T03:59:17;2.22;;;1.48;;
38312;SDS011;24114;52.260;6.714;2022-08-25T04:01:46;4.20;;;1.50;;
38312;SDS011;24114;52.260;6.714;2022-08-25T04:04:20;2.38;;;1.30;;
38312;SDS011;24114;52.260;6.714;2022-08-25T04:06:47;2.35;;;1.60;;
38312;SDS011;24114;52.260;6.714;2022-08-25T04:09:16;2.75;;;1.52;;
38312;SDS011;24114;52.260;6.714;2022-08-25T04:11:43;2.08;;;1.58;;
38312;SDS011;24114;52.260;6.714;2022-08-25T04:14:15;3.83;;;1.40;;
38312;SDS011;24114;52.260;6.714;2022-08-25T04:16:43;3.70;;;1.50;;
38312;SDS011;24114;52.260;6.714;2022-08-25T04:19:12;4.57;;;1.37;;
38312;SDS011;24114;52.260;6.714;2022-08-25T04:21:39;3.25;;;1.60;;
38312;SDS011;24114;52.260;6.714;2022-08-25T04:24:08;2.25;;;1.42;;
38312;SDS011;24114;52.260;6.714;2022-08-25T04:26:38;3.65;;;1.70;;
38312;SDS011;24114;52.260;6.714;2022-08-25T04:29:08;2.30;;;1.60;;
38312;SDS011;24114;52.260;6.714;2022-08-25T04:31:39;2.10;;;1.57;;
38312;SDS011;24114;52.260;6.714;2022-08-25T04:34:08;3.80;;;1.80;;
38312;SDS011;24114;52.260;6.714;2022-08-25T04:36:56;3.08;;;1.60;;
38312;SDS011;24114;52.260;6.714;2022-08-25T04:39:24;3.72;;;1.50;;
38312;SDS011;24114;52.260;6.714;2022-08-25T04:41:51;3.65;;;1.90;;
38312;SDS011;24114;52.260;6.714;2022-08-25T04:44:19;4.03;;;1.80;;
38312;SDS011;24114;52.260;6.714;2022-08-25T04:46:48;3.63;;;1.70;;
38312;SDS011;24114;52.260;6.714;2022-08-25T04:49:16;3.07;;;2.00;;
38312;SDS011;24114;52.260;6.714;2022-08-25T04:51:43;3.30;;;1.63;;
38312;SDS011;24114;52.260;6.714;2022-08-25T04:54:12;2.72;;;1.65;;
38312;SDS011;24114;52.260;6.714;2022-08-25T04:56:42;3.05;;;2.08;;
38312;SDS011;24114;52.260;6.714;2022-08-25T04:59:11;4.03;;;1.80;;
38312;SDS011;24114;52.260;6.714;2022-08-25T05:01:40;4.57;;;1.80;;
38312;SDS011;24114;52.260;6.714;2022-08-25T05:04:09;2.50;;;1.25;;
38312;SDS011;24114;52.260;6.714;2022-08-25T05:06:53;5.18;;;1.50;;
38312;SDS011;24114;52.260;6.714;2022-08-25T05:09:20;3.83;;;1.50;;
38312;SDS011;24114;52.260;6.714;2022-08-25T05:11:50;3.38;;;1.60;;
38312;SDS011;24114;52.260;6.714;2022-08-25T05:14:18;2.70;;;1.60;;
38312;SDS011;24114;52.260;6.714;2022-08-25T05:16:51;4.07;;;1.60;;
38312;SDS011;24114;52.260;6.714;2022-08-25T05:19:21;2.50;;;1.77;;
38312;SDS011;24114;52.260;6.714;2022-08-25T05:21:49;3.28;;;1.85;;
38312;SDS011;24114;52.260;6.714;2022-08-25T05:24:17;4.00;;;1.80;;
38312;SDS011;24114;52.260;6.714;2022-08-25T05:26:45;2.33;;;1.70;;
38312;SDS011;24114;52.260;6.714;2022-08-25T05:29:13;2.05;;;1.80;;
38312;SDS011;24114;52.260;6.714;2022-08-25T05:31:41;3.65;;;1.63;;
38312;SDS011;24114;52.260;6.714;2022-08-25T05:34:16;4.07;;;1.60;;
38312;SDS011;24114;52.260;6.714;2022-08-25T05:36:46;2.30;;;1.50;;
38312;SDS011;24114;52.260;6.714;2022-08-25T05:39:14;4.97;;;1.73;;
38312;SDS011;24114;52.260;6.714;2022-08-25T05:41:42;4.47;;;1.88;;
38312;SDS011;24114;52.260;6.714;2022-08-25T05:44:10;3.10;;;1.98;;
38312;SDS011;24114;52.260;6.714;2022-08-25T05:46:43;5.23;;;1.87;;
38312;SDS011;24114;52.260;6.714;2022-08-25T05:49:10;4.57;;;1.77;;
38312;SDS011;24114;52.260;6.714;2022-08-25T05:51:38;3.65;;;1.77;;
38312;SDS011;24114;52.260;6.714;2022-08-25T05:54:07;3.90;;;1.92;;
38312;SDS011;24114;52.260;6.714;2022-08-25T05:56:35;4.50;;;2.05;;
38312;SDS011;24114;52.260;6.714;2022-08-25T05:59:02;3.50;;;1.70;;
38312;SDS011;24114;52.260;6.714;2022-08-25T06:01:34;3.90;;;1.75;;
38312;SDS011;24114;52.260;6.714;2022-08-25T06:04:20;4.70;;;2.10;;
38312;SDS011;24114;52.260;6.714;2022-08-25T06:06:48;2.30;;;2.00;;
38312;SDS011;24114;52.260;6.714;2022-08-25T06:09:20;4.32;;;1.92;;
38312;SDS011;24114;52.260;6.714;2022-08-25T06:11:48;4.78;;;1.88;;
38312;SDS011;24114;52.260;6.714;2022-08-25T06:14:20;4.20;;;2.37;;
38312;SDS011;24114;52.260;6.714;2022-08-25T06:16:48;3.63;;;1.90;;
38312;SDS011;24114;52.260;6.714;2022-08-25T06:19:16;5.32;;;2.17;;
38312;SDS011;24114;52.260;6.714;2022-08-25T06:21:44;3.67;;;1.77;;
38312;SDS011;24114;52.260;6.714;2022-08-25T06:24:12;2.85;;;1.70;;
38312;SDS011;24114;52.260;6.714;2022-08-25T06:26:42;2.30;;;1.70;;
38312;SDS011;24114;52.260;6.714;2022-08-25T06:29:10;3.65;;;2.33;;
38312;SDS011;24114;52.260;6.714;2022-08-25T06:31:39;3.07;;;1.90;;
38312;SDS011;24114;52.260;6.714;2022-08-25T06:34:07;3.67;;;1.80;;
38312;SDS011;24114;52.260;6.714;2022-08-25T06:36:35;7.68;;;2.10;;
38312;SDS011;24114;52.260;6.714;2022-08-25T06:39:03;5.90;;;2.00;;
38312;SDS011;24114;52.260;6.714;2022-08-25T06:41:30;3.87;;;1.93;;
38312;SDS011;24114;52.260;6.714;2022-08-25T06:44:04;3.47;;;1.90;;
38312;SDS011;24114;52.260;6.714;2022-08-25T06:46:32;3.65;;;1.92;;
38312;SDS011;24114;52.260;6.714;2022-08-25T06:49:02;4.53;;;2.38;;
38312;SDS011;24114;52.260;6.714;2022-08-25T06:51:30;4.07;;;1.70;;
38312;SDS011;24114;52.260;6.714;2022-08-25T06:54:01;7.70;;;2.28;;
38312;SDS011;24114;52.260;6.714;2022-08-25T06:56:29;3.70;;;1.90;;
38312;SDS011;24114;52.260;6.714;2022-08-25T06:58:57;5.18;;;2.10;;
38312;SDS011;24114;52.260;6.714;2022-08-25T07:01:28;4.88;;;1.98;;
38312;SDS011;24114;52.260;6.714;2022-08-25T07:03:58;4.32;;;1.88;;
38312;SDS011;24114;52.260;6.714;2022-08-25T07:06:28;3.53;;;2.22;;
38312;SDS011;24114;52.260;6.714;2022-08-25T07:08:57;3.88;;;1.83;;
38312;SDS011;24114;52.260;6.714;2022-08-25T07:11:26;4.77;;;2.30;;
38312;SDS011;24114;52.260;6.714;2022-08-25T07:13:54;3.50;;;2.15;;
38312;SDS011;24114;52.260;6.714;2022-08-25T07:16:22;4.90;;;2.20;;
38312;SDS011;24114;52.260;6.714;2022-08-25T07:18:57;4.32;;;2.10;;
38312;SDS011;24114;52.260;6.714;2022-08-25T07:21:26;3.97;;;2.15;;
38312;SDS011;24114;52.260;6.714;2022-08-25T07:23:59;6.97;;;2.00;;
38312;SDS011;24114;52.260;6.714;2022-08-25T07:26:29;3.97;;;2.00;;
38312;SDS011;24114;52.260;6.714;2022-08-25T07:29:04;5.60;;;2.13;;
38312;SDS011;24114;52.260;6.714;2022-08-25T07:31:34;3.40;;;2.03;;
38312;SDS011;24114;52.260;6.714;2022-08-25T07:34:04;4.10;;;2.00;;
38312;SDS011;24114;52.260;6.714;2022-08-25T07:36:50;5.30;;;1.90;;
38312;SDS011;24114;52.260;6.714;2022-08-25T07:39:18;6.43;;;2.30;;
38312;SDS011;24114;52.260;6.714;2022-08-25T07:41:47;6.78;;;2.35;;
38312;SDS011;24114;52.260;6.714;2022-08-25T07:44:17;4.55;;;2.08;;
38312;SDS011;24114;52.260;6.714;2022-08-25T07:46:46;4.57;;;2.00;;
38312;SDS011;24114;52.260;6.714;2022-08-25T07:49:17;3.38;;;1.85;;
38312;SDS011;24114;52.260;6.714;2022-08-25T07:51:48;5.63;;;2.28;;
38312;SDS011;24114;52.260;6.714;2022-08-25T07:54:31;6.72;;;2.20;;
38312;SDS011;24114;52.260;6.714;2022-08-25T07:57:00;4.15;;;2.08;;
38312;SDS011;24114;52.260;6.714;2022-08-25T07:59:28;4.13;;;2.10;;
38312;SDS011;24114;52.260;6.714;2022-08-25T08:02:05;4.10;;;1.95;;
38312;SDS011;24114;52.260;6.714;2022-08-25T08:04:35;6.97;;;2.25;;
38312;SDS011;24114;52.260;6.714;2022-08-25T08:07:06;5.25;;;2.30;;
38312;SDS011;24114;52.260;6.714;2022-08-25T08:09:37;3.40;;;1.83;;
38312;SDS011;24114;52.260;6.714;2022-08-25T08:12:05;4.90;;;2.20;;
38312;SDS011;24114;52.260;6.714;2022-08-25T08:14:34;4.15;;;2.28;;
38312;SDS011;24114;52.260;6.714;2022-08-25T08:17:10;4.72;;;2.20;;
38312;SDS011;24114;52.260;6.714;2022-08-25T08:19:40;2.97;;;1.98;;
38312;SDS011;24114;52.260;6.714;2022-08-25T08:22:11;4.65;;;2.00;;
38312;SDS011;24114;52.260;6.714;2022-08-25T08:24:41;2.95;;;1.88;;
38312;SDS011;24114;52.260;6.714;2022-08-25T08:27:21;5.50;;;1.77;;
38312;SDS011;24114;52.260;6.714;2022-08-25T08:29:49;3.70;;;2.30;;
38312;SDS011;24114;52.260;6.714;2022-08-25T08:32:17;3.08;;;1.90;;
38312;SDS011;24114;52.260;6.714;2022-08-25T08:34:51;5.82;;;1.85;;
38312;SDS011;24114;52.260;6.714;2022-08-25T08:37:19;4.03;;;1.90;;
38312;SDS011;24114;52.260;6.714;2022-08-25T08:39:48;4.07;;;2.28;;
38312;SDS011;24114;52.260;6.714;2022-08-25T08:42:25;4.68;;;2.35;;
38312;SDS011;24114;52.260;6.714;2022-08-25T08:45:16;2.58;;;1.70;;
38312;SDS011;24114;52.260;6.714;2022-08-25T08:47:57;2.57;;;2.03;;
38312;SDS011;24114;52.260;6.714;2022-08-25T08:50:51;3.72;;;2.28;;
38312;SDS011;24114;52.260;6.714;2022-08-25T08:53:26;2.70;;;2.17;;
38312;SDS011;24114;52.260;6.714;2022-08-25T08:56:00;3.97;;;2.17;;
38312;SDS011;24114;52.260;6.714;2022-08-25T08:58:33;5.20;;;1.90;;
38312;SDS011;24114;52.260;6.714;2022-08-25T09:01:07;4.10;;;2.25;;
38312;SDS011;24114;52.260;6.714;2022-08-25T09:03:36;3.53;;;1.98;;
38312;SDS011;24114;52.260;6.714;2022-08-25T09:06:09;3.33;;;1.90;;
38312;SDS011;24114;52.260;6.714;2022-08-25T09:08:39;2.90;;;1.92;;
38312;SDS011;24114;52.260;6.714;2022-08-25T09:11:12;3.15;;;1.85;;
38312;SDS011;24114;52.260;6.714;2022-08-25T09:13:50;2.63;;;1.77;;
38312;SDS011;24114;52.260;6.714;2022-08-25T09:16:31;2.75;;;1.85;;
38312;SDS011;24114;52.260;6.714;2022-08-25T09:19:27;3.35;;;1.92;;
38312;SDS011;24114;52.260;6.714;2022-08-25T09:22:03;3.40;;;1.95;;
38312;SDS011;24114;52.260;6.714;2022-08-25T09:25:00;2.85;;;2.10;;
38312;SDS011;24114;52.260;6.714;2022-08-25T09:27:35;5.87;;;2.23;;
38312;SDS011;24114;52.260;6.714;2022-08-25T09:30:08;4.22;;;2.30;;
38312;SDS011;24114;52.260;6.714;2022-08-25T09:32:38;1.97;;;1.87;;
38312;SDS011;24114;52.260;6.714;2022-08-25T09:35:16;3.25;;;1.98;;
38312;SDS011;24114;52.260;6.714;2022-08-25T09:37:57;4.07;;;2.17;;
38312;SDS011;24114;52.260;6.714;2022-08-25T09:40:27;3.63;;;2.00;;
38312;SDS011;24114;52.260;6.714;2022-08-25T09:42:57;2.33;;;2.13;;
38312;SDS011;24114;52.260;6.714;2022-08-25T09:45:38;4.18;;;1.80;;
38312;SDS011;24114;52.260;6.714;2022-08-25T09:48:21;3.37;;;2.07;;
38312;SDS011;24114;52.260;6.714;2022-08-25T09:50:52;4.35;;;2.38;;
38312;SDS011;24114;52.260;6.714;2022-08-25T09:53:22;2.78;;;2.15;;
38312;SDS011;24114;52.260;6.714;2022-08-25T09:55:51;4.40;;;1.80;;
38312;SDS011;24114;52.260;6.714;2022-08-25T09:58:25;3.72;;;2.20;;
38312;SDS011;24114;52.260;6.714;2022-08-25T10:01:01;4.63;;;2.30;;
38312;SDS011;24114;52.260;6.714;2022-08-25T10:03:56;3.38;;;1.70;;
38312;SDS011;24114;52.260;6.714;2022-08-25T10:06:26;3.13;;;1.38;;
38312;SDS011;24114;52.260;6.714;2022-08-25T10:08:58;3.55;;;1.88;;
38312;SDS011;24114;52.260;6.714;2022-08-25T10:11:32;3.00;;;1.85;;
38312;SDS011;24114;52.260;6.714;2022-08-25T10:14:14;3.10;;;1.50;;
38312;SDS011;24114;52.260;6.714;2022-08-25T10:16:44;1.83;;;1.63;;
38312;SDS011;24114;52.260;6.714;2022-08-25T10:19:13;2.50;;;1.90;;
38312;SDS011;24114;52.260;6.714;2022-08-25T10:22:01;3.85;;;1.73;;
38312;SDS011;24114;52.260;6.714;2022-08-25T10:24:32;2.78;;;1.50;;
38312;SDS011;24114;52.260;6.714;2022-08-25T10:27:02;3.13;;;1.60;;
38312;SDS011;24114;52.260;6.714;2022-08-25T10:32:32;4.15;;;1.80;;
38312;SDS011;24114;52.260;6.714;2022-08-25T10:35:13;2.75;;;1.80;;
38312;SDS011;24114;52.260;6.714;2022-08-25T10:37:46;6.93;;;2.07;;
38312;SDS011;24114;52.260;6.714;2022-08-25T10:40:27;2.60;;;1.60;;
38312;SDS011;24114;52.260;6.714;2022-08-25T10:43:01;3.90;;;1.50;;
38312;SDS011;24114;52.260;6.714;2022-08-25T10:45:35;3.60;;;2.00;;
38312;SDS011;24114;52.260;6.714;2022-08-25T10:48:16;2.13;;;1.90;;
38312;SDS011;24114;52.260;6.714;2022-08-25T10:50:52;3.97;;;2.15;;
38312;SDS011;24114;52.260;6.714;2022-08-25T10:53:24;3.92;;;1.73;;
38312;SDS011;24114;52.260;6.714;2022-08-25T10:56:00;2.03;;;1.60;;
38312;SDS011;24114;52.260;6.714;2022-08-25T10:58:52;2.42;;;1.60;;
38312;SDS011;24114;52.260;6.714;2022-08-25T11:01:30;4.78;;;1.92;;
38312;SDS011;24114;52.260;6.714;2022-08-25T11:04:11;2.85;;;2.15;;
38312;SDS011;24114;52.260;6.714;2022-08-25T11:06:41;3.15;;;1.80;;
38312;SDS011;24114;52.260;6.714;2022-08-25T11:09:19;3.80;;;1.77;;
38312;SDS011;24114;52.260;6.714;2022-08-25T11:11:51;3.95;;;1.73;;
38312;SDS011;24114;52.260;6.714;2022-08-25T11:14:21;2.38;;;1.70;;
38312;SDS011;24114;52.260;6.714;2022-08-25T11:16:51;1.95;;;1.60;;
38312;SDS011;24114;52.260;6.714;2022-08-25T11:19:25;1.70;;;1.35;;
38312;SDS011;24114;52.260;6.714;2022-08-25T11:22:00;2.08;;;1.55;;
38312;SDS011;24114;52.260;6.714;2022-08-25T11:24:33;2.03;;;1.38;;
38312;SDS011;24114;52.260;6.714;2022-08-25T11:27:11;1.73;;;1.40;;
38312;SDS011;24114;52.260;6.714;2022-08-25T11:29:48;3.42;;;1.67;;
38312;SDS011;24114;52.260;6.714;2022-08-25T11:32:22;2.37;;;1.33;;
38312;SDS011;24114;52.260;6.714;2022-08-25T11:34:50;2.85;;;1.48;;
38312;SDS011;24114;52.260;6.714;2022-08-25T11:37:20;1.50;;;1.40;;
38312;SDS011;24114;52.260;6.714;2022-08-25T11:40:07;3.30;;;1.25;;
38312;SDS011;24114;52.260;6.714;2022-08-25T11:45:55;1.70;;;1.10;;
38312;SDS011;24114;52.260;6.714;2022-08-25T11:48:36;2.33;;;1.45;;
38312;SDS011;24114;52.260;6.714;2022-08-25T11:51:07;1.70;;;1.08;;
38312;SDS011;24114;52.260;6.714;2022-08-25T11:53:36;2.17;;;1.02;;
38312;SDS011;24114;52.260;6.714;2022-08-25T11:56:08;2.30;;;1.60;;
38312;SDS011;24114;52.260;6.714;2022-08-25T11:58:43;2.53;;;1.58;;
38312;SDS011;24114;52.260;6.714;2022-08-25T12:04:37;2.63;;;1.55;;
38312;SDS011;24114;52.260;6.714;2022-08-25T12:07:21;2.65;;;1.45;;
38312;SDS011;24114;52.260;6.714;2022-08-25T12:12:36;1.98;;;1.38;;
38312;SDS011;24114;52.260;6.714;2022-08-25T12:15:18;3.03;;;1.65;;
38312;SDS011;24114;52.260;6.714;2022-08-25T12:18:06;2.90;;;1.45;;
38312;SDS011;24114;52.260;6.714;2022-08-25T12:23:40;3.22;;;1.58;;
38312;SDS011;24114;52.260;6.714;2022-08-25T12:26:12;2.03;;;1.40;;
38312;SDS011;24114;52.260;6.714;2022-08-25T12:28:46;2.60;;;1.50;;
38312;SDS011;24114;52.260;6.714;2022-08-25T12:31:23;3.38;;;1.67;;
38312;SDS011;24114;52.260;6.714;2022-08-25T12:34:01;3.35;;;1.48;;
38312;SDS011;24114;52.260;6.714;2022-08-25T12:36:37;1.67;;;1.10;;
38312;SDS011;24114;52.260;6.714;2022-08-25T12:39:16;3.37;;;1.23;;
38312;SDS011;24114;52.260;6.714;2022-08-25T12:41:53;2.20;;;1.00;;
38312;SDS011;24114;52.260;6.714;2022-08-25T12:44:38;1.75;;;0.95;;
38312;SDS011;24114;52.260;6.714;2022-08-25T12:47:24;2.73;;;1.17;;
38312;SDS011;24114;52.260;6.714;2022-08-25T12:52:54;2.00;;;0.93;;
38312;SDS011;24114;52.260;6.714;2022-08-25T12:55:27;2.20;;;1.20;;
38312;SDS011;24114;52.260;6.714;2022-08-25T12:57:55;2.38;;;1.00;;
38312;SDS011;24114;52.260;6.714;2022-08-25T13:00:26;2.00;;;1.20;;
38312;SDS011;24114;52.260;6.714;2022-08-25T13:06:04;1.30;;;1.00;;
38312;SDS011;24114;52.260;6.714;2022-08-25T13:08:45;1.33;;;1.00;;
38312;SDS011;24114;52.260;6.714;2022-08-25T13:11:22;2.72;;;1.30;;
38312;SDS011;24114;52.260;6.714;2022-08-25T13:13:59;1.50;;;1.02;;
38312;SDS011;24114;52.260;6.714;2022-08-25T13:16:30;2.10;;;1.02;;
38312;SDS011;24114;52.260;6.714;2022-08-25T13:19:02;1.42;;;0.88;;
38312;SDS011;24114;52.260;6.714;2022-08-25T13:21:34;1.47;;;1.07;;
38312;SDS011;24114;52.260;6.714;2022-08-25T13:24:04;1.25;;;1.05;;
38312;SDS011;24114;52.260;6.714;2022-08-25T13:26:37;2.67;;;0.82;;
38312;SDS011;24114;52.260;6.714;2022-08-25T13:29:15;2.20;;;1.00;;
38312;SDS011;24114;52.260;6.714;2022-08-25T13:31:49;1.73;;;1.05;;
38312;SDS011;24114;52.260;6.714;2022-08-25T13:34:21;1.50;;;0.70;;
38312;SDS011;24114;52.260;6.714;2022-08-25T13:37:04;2.33;;;1.00;;
38312;SDS011;24114;52.260;6.714;2022-08-25T13:39:50;1.60;;;0.80;;
38312;SDS011;24114;52.260;6.714;2022-08-25T13:42:21;1.52;;;0.70;;
38312;SDS011;24114;52.260;6.714;2022-08-25T13:44:54;2.38;;;1.08;;
38312;SDS011;24114;52.260;6.714;2022-08-25T13:47:30;2.40;;;0.90;;
38312;SDS011;24114;52.260;6.714;2022-08-25T13:50:14;1.52;;;0.73;;
38312;SDS011;24114;52.260;6.714;2022-08-25T13:52:52;2.20;;;0.80;;
38312;SDS011;24114;52.260;6.714;2022-08-25T13:55:21;3.38;;;0.90;;
38312;SDS011;24114;52.260;6.714;2022-08-25T13:57:54;2.10;;;0.70;;
38312;SDS011;24114;52.260;6.714;2022-08-25T14:00:27;1.65;;;0.88;;
38312;SDS011;24114;52.260;6.714;2022-08-25T14:02:58;1.85;;;0.65;;
38312;SDS011;24114;52.260;6.714;2022-08-25T14:05:33;2.55;;;0.68;;
38312;SDS011;24114;52.260;6.714;2022-08-25T14:08:03;2.97;;;0.90;;
38312;SDS011;24114;52.260;6.714;2022-08-25T14:10:52;1.48;;;0.65;;
38312;SDS011;24114;52.260;6.714;2022-08-25T14:13:30;3.45;;;1.15;;
38312;SDS011;24114;52.260;6.714;2022-08-25T14:16:07;1.42;;;0.90;;
38312;SDS011;24114;52.260;6.714;2022-08-25T14:18:36;2.28;;;0.98;;
38312;SDS011;24114;52.260;6.714;2022-08-25T14:21:09;1.55;;;0.88;;
38312;SDS011;24114;52.260;6.714;2022-08-25T14:23:37;2.05;;;0.77;;
38312;SDS011;24114;52.260;6.714;2022-08-25T14:26:05;1.40;;;0.70;;
38312;SDS011;24114;52.260;6.714;2022-08-25T14:28:33;1.50;;;0.55;;
38312;SDS011;24114;52.260;6.714;2022-08-25T14:31:01;1.27;;;0.60;;
38312;SDS011;24114;52.260;6.714;2022-08-25T14:33:34;3.08;;;0.63;;
38312;SDS011;24114;52.260;6.714;2022-08-25T14:36:05;2.10;;;0.60;;
38312;SDS011;24114;52.260;6.714;2022-08-25T14:38:34;2.60;;;0.40;;
38312;SDS011;24114;52.260;6.714;2022-08-25T14:41:06;2.20;;;0.85;;
38312;SDS011;24114;52.260;6.714;2022-08-25T14:43:38;1.70;;;0.60;;
38312;SDS011;24114;52.260;6.714;2022-08-25T14:46:08;2.60;;;0.70;;
38312;SDS011;24114;52.260;6.714;2022-08-25T14:48:45;2.40;;;0.60;;
38312;SDS011;24114;52.260;6.714;2022-08-25T14:51:14;1.50;;;0.80;;
38312;SDS011;24114;52.260;6.714;2022-08-25T14:53:43;3.13;;;0.57;;
38312;SDS011;24114;52.260;6.714;2022-08-25T14:56:11;1.20;;;0.60;;
38312;SDS011;24114;52.260;6.714;2022-08-25T14:58:39;1.42;;;0.63;;
38312;SDS011;24114;52.260;6.714;2022-08-25T15:01:20;1.67;;;0.60;;
38312;SDS011;24114;52.260;6.714;2022-08-25T15:03:56;2.10;;;0.55;;
38312;SDS011;24114;52.260;6.714;2022-08-25T15:06:26;1.77;;;0.63;;
38312;SDS011;24114;52.260;6.714;2022-08-25T15:08:56;1.63;;;0.60;;
38312;SDS011;24114;52.260;6.714;2022-08-25T15:11:38;1.37;;;0.63;;
38312;SDS011;24114;52.260;6.714;2022-08-25T15:14:07;4.47;;;0.70;;
38312;SDS011;24114;52.260;6.714;2022-08-25T15:16:38;1.38;;;0.70;;
38312;SDS011;24114;52.260;6.714;2022-08-25T15:19:08;3.05;;;0.93;;
38312;SDS011;24114;52.260;6.714;2022-08-25T15:21:41;1.10;;;0.70;;
38312;SDS011;24114;52.260;6.714;2022-08-25T15:24:11;1.63;;;0.80;;
38312;SDS011;24114;52.260;6.714;2022-08-25T15:26:43;1.25;;;0.73;;
38312;SDS011;24114;52.260;6.714;2022-08-25T15:29:20;1.60;;;0.57;;
38312;SDS011;24114;52.260;6.714;2022-08-25T15:31:48;2.17;;;0.55;;
38312;SDS011;24114;52.260;6.714;2022-08-25T15:34:16;2.00;;;0.52;;
38312;SDS011;24114;52.260;6.714;2022-08-25T15:36:44;1.63;;;0.77;;